Time;durP1;ratioP1;P1;durP2;ratioP2;P2;SDS_P1;SDS_P2;PMS_P1;PMS_P2;Temp;Humidity;BMP_temperature;BMP_pressure;BME280_temperature;BME280_humidity;BME280_pressure;Samples;Min_cycle;Max_cycle;Signal;HPM_P1;HPM_P2
2022/01/21 00:00:57;;;;;;;10.43;4.53;;;;;;;;;;4969173;28;20208;-74
2022/01/21 00:03:24;;;;;;;10.47;4.30;;;;;;;;;;4966103;28;20778;-75
2022/01/21 00:05:50;;;;;;;9.20;4.13;;;;;;;;;;4966470;28;20200;-75
2022/01/21 00:08:17;;;;;;;9.80;4.07;;;;;;;;;;4975432;28;20177;-75
2022/01/21 00:10:43;;;;;;;10.90;3.93;;;;;;;;;;4967270;28;20173;-74
2022/01/21 00:13:33;;;;;;;10.80;3.90;;;;;;;;;;4960043;28;20207;-74
2022/01/21 00:15:59;;;;;;;7.43;3.83;;;;;;;;;;4963203;28;20243;-74
2022/01/21 00:18:25;;;;;;;6.97;3.57;;;;;;;;;;4974580;28;20549;-73
2022/01/21 00:31:52;;;;;;;7.93;3.30;;;;;;;;;;4972520;28;20530;-74
2022/01/21 00:34:19;;;;;;;9.63;3.63;;;;;;;;;;4958476;28;20603;-74
2022/01/21 00:36:45;;;;;;;8.50;3.70;;;;;;;;;;4962242;28;20229;-74
2022/01/21 00:39:12;;;;;;;8.77;3.60;;;;;;;;;;4974290;28;20205;-74
2022/01/21 00:41:47;;;;;;;12.10;3.73;;;;;;;;;;4969587;28;20745;-74
2022/01/21 00:44:13;;;;;;;8.67;3.50;;;;;;;;;;4953395;28;20215;-74
2022/01/21 00:46:39;;;;;;;7.10;3.37;;;;;;;;;;4972368;28;20215;-74
2022/01/21 00:49:05;;;;;;;8.37;3.83;;;;;;;;;;4969500;28;20177;-74
2022/01/21 00:51:31;;;;;;;8.40;4.10;;;;;;;;;;4970911;28;20177;-74
2022/01/21 00:53:59;;;;;;;8.20;3.43;;;;;;;;;;4953202;28;20200;-74
2022/01/21 00:56:25;;;;;;;8.93;3.57;;;;;;;;;;4967026;28;20259;-74
2022/01/21 00:58:51;;;;;;;12.47;3.67;;;;;;;;;;4961896;28;20181;-74
2022/01/21 01:01:17;;;;;;;11.03;4.00;;;;;;;;;;4950226;28;20181;-73
2022/01/21 01:03:44;;;;;;;9.80;4.00;;;;;;;;;;4971878;28;20212;-72
2022/01/21 01:06:10;;;;;;;8.70;3.67;;;;;;;;;;4965003;28;20212;-73
2022/01/21 01:08:36;;;;;;;11.63;5.30;;;;;;;;;;4972217;28;20188;-73
2022/01/21 01:22:00;;;;;;;9.07;3.53;;;;;;;;;;4932725;29;20200;-73
2022/01/21 01:30:00;;;;;;;8.17;3.53;;;;;;;;;;4979446;28;20288;-72
2022/01/21 01:32:29;;;;;;;12.93;3.80;;;;;;;;;;4969113;28;20173;-72
2022/01/21 01:34:55;;;;;;;10.73;3.90;;;;;;;;;;4968132;28;20212;-74
2022/01/21 01:49:27;;;;;;;11.60;4.50;;;;;;;;;;4966933;28;20212;-74
2022/01/21 01:51:06;;;;;;;11.17;4.30;;;;;;;;;;4981127;28;20188;-73
2022/01/21 01:53:37;;;;;;;14.80;6.67;;;;;;;;;;4963490;28;20648;-74
2022/01/21 01:56:05;;;;;;;11.47;5.87;;;;;;;;;;4968715;28;20386;-73
2022/01/21 01:58:38;;;;;;;12.53;5.07;;;;;;;;;;4964268;28;20188;-73
2022/01/21 02:01:05;;;;;;;10.63;5.67;;;;;;;;;;4966945;28;20186;-74
2022/01/21 02:03:32;;;;;;;9.80;4.80;;;;;;;;;;4962720;28;20212;-74
2022/01/21 02:05:58;;;;;;;11.90;4.57;;;;;;;;;;4959672;28;20201;-73
2022/01/21 02:08:25;;;;;;;13.80;4.87;;;;;;;;;;4963583;28;20220;-74
2022/01/21 02:10:52;;;;;;;10.70;4.30;;;;;;;;;;4970303;28;21565;-74
2022/01/21 02:13:22;;;;;;;10.80;4.60;;;;;;;;;;4951815;28;20187;-73
2022/01/21 02:16:01;;;;;;;10.70;5.10;;;;;;;;;;4969249;28;20288;-74
2022/01/21 02:24:03;;;;;;;12.33;5.60;;;;;;;;;;4965901;28;20212;-74
2022/01/21 02:26:29;;;;;;;10.00;5.13;;;;;;;;;;4963060;28;20189;-74
2022/01/21 02:28:59;;;;;;;10.17;5.30;;;;;;;;;;4958612;28;20180;-74
2022/01/21 02:31:25;;;;;;;10.13;5.40;;;;;;;;;;4966679;28;20648;-73
2022/01/21 02:33:51;;;;;;;12.77;5.07;;;;;;;;;;4967023;28;20177;-73
2022/01/21 02:36:17;;;;;;;13.40;5.83;;;;;;;;;;4970492;28;20244;-73
2022/01/21 02:38:44;;;;;;;10.80;5.70;;;;;;;;;;4973784;28;20196;-73
2022/01/21 02:41:10;;;;;;;14.07;5.77;;;;;;;;;;4972831;28;20671;-74
2022/01/21 02:43:36;;;;;;;12.50;5.47;;;;;;;;;;4952793;28;20676;-73
2022/01/21 02:46:07;;;;;;;17.57;6.30;;;;;;;;;;4950202;28;20215;-73
2022/01/21 02:48:37;;;;;;;13.40;6.10;;;;;;;;;;4968830;28;20224;-73
2022/01/21 02:51:04;;;;;;;13.00;5.80;;;;;;;;;;4954883;28;20222;-72
2022/01/21 02:54:04;;;;;;;13.93;6.33;;;;;;;;;;4941768;28;20219;-74
2022/01/21 02:56:27;;;;;;;12.37;6.00;;;;;;;;;;4964864;28;20623;-73
2022/01/21 02:58:53;;;;;;;13.80;6.27;;;;;;;;;;4970261;28;20631;-73
2022/01/21 03:01:19;;;;;;;11.27;5.50;;;;;;;;;;4971715;28;20184;-73
2022/01/21 03:03:46;;;;;;;10.17;5.70;;;;;;;;;;4969773;28;20205;-73
2022/01/21 03:06:15;;;;;;;11.93;5.70;;;;;;;;;;4971132;28;20196;-73
2022/01/21 03:08:42;;;;;;;13.30;5.90;;;;;;;;;;4954697;28;20195;-74
2022/01/21 03:11:08;;;;;;;12.77;6.10;;;;;;;;;;4969999;28;20215;-74
2022/01/21 03:13:34;;;;;;;13.87;6.53;;;;;;;;;;4964877;28;20219;-74
2022/01/21 03:16:00;;;;;;;13.93;5.73;;;;;;;;;;4975662;28;20207;-74
2022/01/21 03:18:27;;;;;;;15.63;6.00;;;;;;;;;;4965929;28;20672;-74
2022/01/21 03:20:53;;;;;;;15.87;5.90;;;;;;;;;;4965604;28;20189;-74
2022/01/21 03:23:22;;;;;;;15.90;6.30;;;;;;;;;;4938197;29;20173;-74
2022/01/21 03:25:48;;;;;;;10.27;5.77;;;;;;;;;;4964406;28;20831;-74
2022/01/21 03:28:15;;;;;;;12.87;5.60;;;;;;;;;;4971431;28;20200;-74
2022/01/21 03:30:46;;;;;;;12.37;5.90;;;;;;;;;;4975216;28;20261;-74
2022/01/21 03:33:14;;;;;;;12.90;6.03;;;;;;;;;;4957830;28;20193;-74
2022/01/21 03:35:43;;;;;;;12.53;6.10;;;;;;;;;;4974678;28;20236;-74
2022/01/21 03:38:10;;;;;;;13.47;6.30;;;;;;;;;;4953585;28;20204;-74
2022/01/21 03:40:37;;;;;;;16.47;6.37;;;;;;;;;;4968972;28;20749;-73
2022/01/21 03:43:03;;;;;;;15.77;6.43;;;;;;;;;;4972114;28;20184;-74
2022/01/21 03:45:29;;;;;;;15.03;7.03;;;;;;;;;;4953334;28;20206;-74
2022/01/21 03:47:56;;;;;;;15.00;6.30;;;;;;;;;;4955118;28;20199;-74
2022/01/21 03:50:32;;;;;;;13.90;6.37;;;;;;;;;;4970664;28;20177;-74
2022/01/21 03:53:00;;;;;;;14.33;6.10;;;;;;;;;;4972926;28;20175;-74
2022/01/21 03:55:27;;;;;;;10.57;5.73;;;;;;;;;;4974705;28;20216;-74
2022/01/21 03:57:53;;;;;;;10.43;5.70;;;;;;;;;;4973907;28;20196;-74
2022/01/21 04:00:24;;;;;;;10.00;5.10;;;;;;;;;;4975365;28;20279;-74
2022/01/21 04:02:51;;;;;;;11.17;6.37;;;;;;;;;;4977474;28;20184;-73
2022/01/21 04:05:20;;;;;;;10.13;5.90;;;;;;;;;;4974540;28;20270;-73
2022/01/21 04:07:47;;;;;;;11.93;5.93;;;;;;;;;;4974843;28;20212;-75
2022/01/21 04:10:13;;;;;;;11.27;5.73;;;;;;;;;;4979822;28;20177;-73
2022/01/21 04:12:39;;;;;;;11.63;6.07;;;;;;;;;;4974055;28;20719;-73
2022/01/21 04:15:06;;;;;;;12.30;5.93;;;;;;;;;;4975819;28;20560;-73
2022/01/21 04:17:32;;;;;;;12.90;6.27;;;;;;;;;;4968688;28;20248;-73
2022/01/21 04:19:59;;;;;;;12.17;5.80;;;;;;;;;;4976908;28;20703;-74
2022/01/21 04:22:25;;;;;;;10.70;5.10;;;;;;;;;;4961204;28;20188;-73
2022/01/21 04:24:52;;;;;;;11.77;6.13;;;;;;;;;;4971875;28;20200;-74
2022/01/21 04:27:18;;;;;;;15.17;6.63;;;;;;;;;;4960313;28;20664;-73
2022/01/21 04:29:45;;;;;;;12.73;6.00;;;;;;;;;;4960143;28;20226;-73
2022/01/21 04:32:15;;;;;;;13.27;6.20;;;;;;;;;;4974858;28;20217;-75
2022/01/21 04:34:42;;;;;;;11.07;6.07;;;;;;;;;;4974945;28;20203;-75
2022/01/21 04:37:11;;;;;;;11.43;5.93;;;;;;;;;;5007930;23;20318;-75
2022/01/21 04:40:07;;;;;;;13.53;6.10;;;;;;;;;;4966439;28;20200;-75
2022/01/21 04:48:05;;;;;;;12.87;6.00;;;;;;;;;;4992365;28;20183;-75
2022/01/21 04:50:40;;;;;;;12.67;6.90;;;;;;;;;;4974671;28;20250;-75
2022/01/21 04:53:08;;;;;;;13.10;6.70;;;;;;;;;;4974394;28;20180;-74
2022/01/21 04:55:46;;;;;;;16.47;6.67;;;;;;;;;;4973596;28;20667;-74
2022/01/21 04:58:12;;;;;;;17.23;6.90;;;;;;;;;;4980950;28;20268;-74
2022/01/21 05:00:46;;;;;;;11.50;6.40;;;;;;;;;;4973262;28;20229;-75
2022/01/21 05:03:12;;;;;;;15.33;7.20;;;;;;;;;;4988210;28;20177;-76
2022/01/21 05:05:39;;;;;;;12.50;6.37;;;;;;;;;;4970664;28;20344;-73
2022/01/21 05:08:09;;;;;;;15.27;6.70;;;;;;;;;;4981660;28;20223;-74
2022/01/21 05:10:37;;;;;;;14.37;6.83;;;;;;;;;;4990643;28;20592;-75
2022/01/21 05:13:03;;;;;;;9.83;6.57;;;;;;;;;;4977523;28;20657;-74
2022/01/21 05:16:29;;;;;;;13.97;6.87;;;;;;;;;;4953767;28;20264;-74
2022/01/21 05:18:16;;;;;;;13.63;7.10;;;;;;;;;;4960717;28;20311;-75
2022/01/21 05:20:52;;;;;;;12.30;6.97;;;;;;;;;;4980967;28;20196;-75
2022/01/21 05:23:35;;;;;;;13.43;7.00;;;;;;;;;;4988683;28;20220;-75
2022/01/21 05:26:02;;;;;;;12.50;6.23;;;;;;;;;;4981422;28;20298;-75
2022/01/21 05:28:29;;;;;;;15.10;7.90;;;;;;;;;;4963569;28;20667;-75
2022/01/21 05:31:18;;;;;;;15.37;7.77;;;;;;;;;;4985806;28;20192;-74
2022/01/21 05:33:52;;;;;;;13.30;7.07;;;;;;;;;;4970674;28;20180;-74
2022/01/21 05:36:40;;;;;;;16.83;7.67;;;;;;;;;;4969891;28;20354;-73
2022/01/21 05:39:33;;;;;;;14.60;7.90;;;;;;;;;;4966957;28;20216;-73
2022/01/21 05:42:20;;;;;;;14.80;7.43;;;;;;;;;;4973301;28;20196;-73
2022/01/21 05:47:58;;;;;;;25.80;11.90;;;;;;;;;;4985261;28;20239;-74
2022/01/21 05:50:43;;;;;;;16.60;9.57;;;;;;;;;;4966443;28;20180;-74
2022/01/21 05:53:28;;;;;;;20.60;10.43;;;;;;;;;;4962730;28;20199;-74
2022/01/21 05:56:31;;;;;;;17.10;9.40;;;;;;;;;;4989284;28;20266;-74
2022/01/21 05:59:12;;;;;;;17.97;9.27;;;;;;;;;;4975022;28;20663;-74
2022/01/21 06:01:38;;;;;;;13.10;7.90;;;;;;;;;;4968809;28;20441;-74
2022/01/21 06:04:05;;;;;;;15.53;8.70;;;;;;;;;;4966730;28;20204;-74
2022/01/21 06:06:31;;;;;;;15.10;9.00;;;;;;;;;;4983837;28;20702;-74
2022/01/21 06:08:57;;;;;;;12.47;8.33;;;;;;;;;;4977640;28;20257;-74
2022/01/21 06:11:23;;;;;;;14.30;8.13;;;;;;;;;;4977134;28;20181;-74
2022/01/21 06:13:50;;;;;;;12.60;7.70;;;;;;;;;;4960811;28;20197;-74
2022/01/21 06:16:17;;;;;;;12.37;8.07;;;;;;;;;;4956278;28;20609;-74
2022/01/21 06:18:44;;;;;;;12.63;7.27;;;;;;;;;;4963581;28;20212;-74
2022/01/21 06:21:11;;;;;;;18.33;8.40;;;;;;;;;;4972221;28;20226;-74
2022/01/21 06:23:37;;;;;;;14.70;8.00;;;;;;;;;;4965975;28;20204;-74
2022/01/21 06:26:03;;;;;;;16.70;7.53;;;;;;;;;;4961444;28;20296;-74
2022/01/21 06:28:29;;;;;;;11.33;6.80;;;;;;;;;;4964646;28;20185;-74
2022/01/21 06:30:55;;;;;;;13.30;6.53;;;;;;;;;;4981335;28;21632;-74
2022/01/21 06:33:22;;;;;;;14.77;6.80;;;;;;;;;;4971089;28;20181;-74
2022/01/21 06:35:49;;;;;;;16.63;7.80;;;;;;;;;;4949802;28;20232;-74
2022/01/21 06:38:15;;;;;;;15.53;7.50;;;;;;;;;;4969301;28;20200;-74
2022/01/21 06:40:41;;;;;;;10.83;6.37;;;;;;;;;;4963622;28;20185;-74
2022/01/21 06:43:07;;;;;;;10.73;6.47;;;;;;;;;;4973934;28;20187;-75
2022/01/21 06:45:34;;;;;;;15.03;6.70;;;;;;;;;;4971758;28;20599;-75
2022/01/21 06:48:02;;;;;;;14.90;7.53;;;;;;;;;;4975450;28;20177;-75
2022/01/21 06:50:30;;;;;;;14.97;7.70;;;;;;;;;;4969007;28;20651;-75
2022/01/21 06:52:56;;;;;;;15.23;7.40;;;;;;;;;;4973832;28;20232;-75
2022/01/21 06:55:22;;;;;;;11.77;6.90;;;;;;;;;;4969821;28;20432;-75
2022/01/21 06:57:49;;;;;;;14.67;7.67;;;;;;;;;;4984009;28;20613;-75
2022/01/21 07:00:18;;;;;;;12.63;7.40;;;;;;;;;;4971031;28;20643;-75
2022/01/21 07:02:48;;;;;;;14.73;6.90;;;;;;;;;;4962782;28;20189;-74
2022/01/21 07:05:15;;;;;;;12.23;6.90;;;;;;;;;;4971252;28;20210;-77
2022/01/21 07:07:41;;;;;;;13.97;7.73;;;;;;;;;;4973779;28;20280;-79
2022/01/21 07:10:10;;;;;;;14.33;7.70;;;;;;;;;;4969340;28;20196;-78
2022/01/21 07:12:36;;;;;;;16.77;8.17;;;;;;;;;;4972874;28;20719;-77
2022/01/21 07:15:03;;;;;;;19.67;8.70;;;;;;;;;;4962751;28;20231;-79
2022/01/21 07:17:29;;;;;;;12.90;7.77;;;;;;;;;;4966548;28;20240;-81
2022/01/21 07:19:56;;;;;;;18.47;7.73;;;;;;;;;;4950327;29;20200;-77
2022/01/21 07:22:22;;;;;;;14.57;7.33;;;;;;;;;;4965458;28;20211;-77
2022/01/21 07:24:48;;;;;;;12.77;7.77;;;;;;;;;;4970879;28;20679;-77
2022/01/21 07:27:14;;;;;;;15.33;8.70;;;;;;;;;;4968534;28;20196;-77
2022/01/21 07:29:41;;;;;;;16.00;8.23;;;;;;;;;;4969877;28;20187;-77
2022/01/21 07:32:07;;;;;;;15.23;8.93;;;;;;;;;;4961968;28;20185;-78
2022/01/21 07:34:34;;;;;;;18.13;9.40;;;;;;;;;;4964975;28;20252;-77
2022/01/21 07:37:01;;;;;;;18.60;8.67;;;;;;;;;;4956331;28;20216;-77
2022/01/21 07:39:27;;;;;;;18.67;9.57;;;;;;;;;;4954215;28;20279;-77
2022/01/21 07:41:53;;;;;;;16.70;9.97;;;;;;;;;;4956702;28;20759;-77
2022/01/21 07:44:21;;;;;;;17.60;9.23;;;;;;;;;;4953010;28;20672;-78
2022/01/21 07:46:48;;;;;;;17.07;9.27;;;;;;;;;;4968607;28;20357;-78
2022/01/21 07:49:14;;;;;;;18.17;9.20;;;;;;;;;;4987034;28;20526;-78
2022/01/21 07:51:41;;;;;;;15.00;8.90;;;;;;;;;;4970017;28;20204;-77
2022/01/21 07:54:07;;;;;;;20.93;10.03;;;;;;;;;;4971042;28;20181;-76
2022/01/21 07:56:34;;;;;;;18.23;9.80;;;;;;;;;;4965498;28;20291;-77
2022/01/21 07:59:01;;;;;;;16.63;9.40;;;;;;;;;;4972141;28;20180;-76
2022/01/21 08:01:27;;;;;;;16.57;10.50;;;;;;;;;;4967097;28;20742;-75
2022/01/21 08:03:53;;;;;;;16.27;9.70;;;;;;;;;;4966240;28;20236;-75
2022/01/21 08:06:20;;;;;;;17.20;9.10;;;;;;;;;;4965273;28;20230;-75
2022/01/21 08:08:46;;;;;;;15.43;9.57;;;;;;;;;;4977752;28;20173;-76
2022/01/21 08:11:12;;;;;;;16.13;8.73;;;;;;;;;;4968184;28;20181;-76
2022/01/21 08:13:38;;;;;;;18.70;9.63;;;;;;;;;;4965472;28;20189;-74
2022/01/21 08:16:04;;;;;;;18.10;9.33;;;;;;;;;;4979932;28;20205;-73
2022/01/21 08:18:31;;;;;;;20.73;10.70;;;;;;;;;;4971832;28;20192;-78
2022/01/21 08:20:57;;;;;;;15.13;9.67;;;;;;;;;;4968370;28;20185;-77
2022/01/21 08:23:23;;;;;;;16.27;9.40;;;;;;;;;;4999307;28;20538;-76
2022/01/21 08:25:51;;;;;;;15.00;9.03;;;;;;;;;;4966274;28;20192;-77
2022/01/21 08:28:17;;;;;;;19.87;9.03;;;;;;;;;;4965177;28;20564;-78
2022/01/21 08:30:43;;;;;;;19.37;9.63;;;;;;;;;;4956484;28;20666;-78
2022/01/21 08:33:10;;;;;;;17.13;8.83;;;;;;;;;;4969188;28;20204;-77
2022/01/21 08:35:36;;;;;;;16.83;8.77;;;;;;;;;;4974077;28;20279;-76
2022/01/21 08:38:03;;;;;;;16.37;8.30;;;;;;;;;;4968930;28;20192;-78
2022/01/21 08:40:29;;;;;;;12.03;8.37;;;;;;;;;;4970282;28;20208;-78
2022/01/21 08:42:55;;;;;;;18.27;8.87;;;;;;;;;;4984373;28;20202;-77
2022/01/21 08:45:21;;;;;;;13.13;8.20;;;;;;;;;;4962359;28;20212;-78
2022/01/21 08:47:48;;;;;;;16.23;9.80;;;;;;;;;;4973589;28;20197;-77
2022/01/21 08:50:17;;;;;;;19.67;11.50;;;;;;;;;;4980714;28;20176;-78
2022/01/21 08:52:43;;;;;;;18.03;10.83;;;;;;;;;;4973889;28;20259;-78
2022/01/21 08:55:17;;;;;;;16.77;10.80;;;;;;;;;;4967895;28;20731;-78
2022/01/21 08:57:45;;;;;;;17.37;10.70;;;;;;;;;;4975893;28;20217;-78
2022/01/21 09:00:16;;;;;;;21.57;10.43;;;;;;;;;;4976547;28;20168;-78
2022/01/21 09:02:42;;;;;;;19.67;10.03;;;;;;;;;;4970113;28;20283;-78
2022/01/21 09:05:08;;;;;;;22.53;11.17;;;;;;;;;;4955312;28;20256;-77
2022/01/21 09:07:35;;;;;;;18.07;9.67;;;;;;;;;;4982314;28;20202;-77
2022/01/21 09:10:02;;;;;;;15.90;9.70;;;;;;;;;;4979374;28;20169;-78
2022/01/21 09:12:28;;;;;;;18.20;9.53;;;;;;;;;;4983475;28;20713;-78
2022/01/21 09:14:55;;;;;;;16.17;8.40;;;;;;;;;;4993721;28;20176;-77
2022/01/21 09:17:21;;;;;;;16.67;8.97;;;;;;;;;;4982296;28;20295;-77
2022/01/21 09:19:48;;;;;;;15.10;9.17;;;;;;;;;;4974550;28;20556;-76
2022/01/21 09:22:14;;;;;;;18.43;9.50;;;;;;;;;;4969152;28;20186;-77
2022/01/21 09:24:40;;;;;;;13.97;9.43;;;;;;;;;;4974603;28;20232;-77
2022/01/21 09:27:06;;;;;;;19.67;9.07;;;;;;;;;;4976694;28;20199;-78
2022/01/21 09:29:34;;;;;;;20.50;11.00;;;;;;;;;;4968459;28;20651;-77
2022/01/21 09:32:00;;;;;;;22.13;9.20;;;;;;;;;;4974553;28;20562;-77
2022/01/21 09:34:27;;;;;;;17.83;9.60;;;;;;;;;;4973665;28;20562;-77
2022/01/21 09:36:55;;;;;;;19.37;9.13;;;;;;;;;;4973815;28;20277;-77
2022/01/21 09:39:21;;;;;;;16.43;9.60;;;;;;;;;;4957256;28;20194;-77
2022/01/21 09:41:48;;;;;;;20.90;10.53;;;;;;;;;;4971975;28;20547;-77
2022/01/21 09:44:16;;;;;;;17.37;8.77;;;;;;;;;;4980981;28;20187;-78
2022/01/21 09:46:45;;;;;;;14.90;9.27;;;;;;;;;;4975703;28;20211;-77
2022/01/21 09:49:26;;;;;;;14.53;8.87;;;;;;;;;;4981878;28;20253;-77
2022/01/21 09:52:00;;;;;;;15.97;9.13;;;;;;;;;;4956684;28;20194;-77
2022/01/21 09:54:28;;;;;;;22.30;10.23;;;;;;;;;;4974814;28;20627;-77
2022/01/21 09:56:55;;;;;;;23.13;11.00;;;;;;;;;;4988979;28;20202;-77
2022/01/21 09:59:23;;;;;;;20.43;10.33;;;;;;;;;;4989215;28;20192;-77
2022/01/21 10:01:50;;;;;;;17.80;9.40;;;;;;;;;;4994018;28;20188;-77
2022/01/21 10:04:18;;;;;;;20.93;9.50;;;;;;;;;;4992464;28;20222;-76
2022/01/21 10:06:47;;;;;;;20.30;10.30;;;;;;;;;;4976665;28;20227;-76
2022/01/21 10:09:15;;;;;;;19.20;9.53;;;;;;;;;;4960265;28;20239;-75
2022/01/21 10:11:47;;;;;;;21.10;10.70;;;;;;;;;;4955207;29;20671;-76
2022/01/21 10:14:13;;;;;;;15.33;9.27;;;;;;;;;;4955018;28;20189;-76
2022/01/21 10:16:42;;;;;;;15.87;9.30;;;;;;;;;;4969526;28;20563;-75
2022/01/21 10:19:11;;;;;;;19.37;9.40;;;;;;;;;;4985093;28;20211;-76
2022/01/21 10:21:43;;;;;;;25.90;11.03;;;;;;;;;;4975717;28;20560;-76
2022/01/21 10:24:11;;;;;;;16.17;9.97;;;;;;;;;;4975286;28;20212;-75
2022/01/21 10:26:46;;;;;;;17.63;9.43;;;;;;;;;;4973640;28;20722;-75
2022/01/21 10:29:13;;;;;;;20.67;10.10;;;;;;;;;;4957235;28;20223;-75
2022/01/21 10:31:50;;;;;;;17.20;9.83;;;;;;;;;;4975145;28;20682;-75
2022/01/21 10:34:23;;;;;;;15.57;8.87;;;;;;;;;;4980514;28;20182;-75
2022/01/21 10:36:55;;;;;;;20.13;9.30;;;;;;;;;;4993005;28;20219;-75
2022/01/21 10:39:29;;;;;;;19.00;9.80;;;;;;;;;;4984948;28;20220;-75
2022/01/21 10:41:57;;;;;;;18.17;10.00;;;;;;;;;;4976925;28;20184;-76
2022/01/21 10:44:30;;;;;;;16.33;9.47;;;;;;;;;;4968715;28;20684;-76
2022/01/21 10:47:10;;;;;;;19.50;9.20;;;;;;;;;;4956018;28;20667;-75
2022/01/21 10:49:39;;;;;;;15.03;9.10;;;;;;;;;;4976311;28;20272;-76
2022/01/21 10:52:06;;;;;;;18.47;8.63;;;;;;;;;;4969444;28;20189;-76
2022/01/21 10:54:33;;;;;;;17.10;9.00;;;;;;;;;;4975812;28;20814;-76
2022/01/21 10:57:02;;;;;;;17.73;9.00;;;;;;;;;;4973090;28;20236;-76
2022/01/21 10:59:47;;;;;;;14.37;8.53;;;;;;;;;;4974007;28;20264;-76
2022/01/21 11:02:13;;;;;;;21.97;11.47;;;;;;;;;;4973784;28;20325;-76
2022/01/21 11:04:43;;;;;;;17.67;9.23;;;;;;;;;;4971663;28;20581;-76
2022/01/21 11:07:13;;;;;;;18.83;9.10;;;;;;;;;;4949812;28;20739;-76
2022/01/21 11:09:39;;;;;;;14.33;7.40;;;;;;;;;;4962313;28;20281;-76
2022/01/21 11:12:07;;;;;;;16.27;6.60;;;;;;;;;;4954470;28;20652;-75
2022/01/21 11:14:37;;;;;;;12.67;6.30;;;;;;;;;;4979935;28;20204;-76
2022/01/21 11:17:14;;;;;;;12.60;5.87;;;;;;;;;;4972015;28;20679;-76
2022/01/21 11:19:41;;;;;;;13.70;6.10;;;;;;;;;;4977180;28;20189;-76
2022/01/21 11:22:08;;;;;;;13.10;5.40;;;;;;;;;;4969824;28;20184;-76
2022/01/21 11:24:34;;;;;;;12.30;5.50;;;;;;;;;;4981622;28;20215;-76
2022/01/21 11:27:05;;;;;;;13.30;6.10;;;;;;;;;;4990588;28;20200;-76
2022/01/21 11:29:31;;;;;;;23.13;9.47;;;;;;;;;;4992608;28;20160;-76
2022/01/21 11:31:57;;;;;;;22.17;9.63;;;;;;;;;;4992423;28;20211;-76
2022/01/21 11:34:24;;;;;;;15.80;8.37;;;;;;;;;;4975531;28;20193;-76
2022/01/21 11:36:50;;;;;;;17.43;9.17;;;;;;;;;;4953363;28;20316;-76
2022/01/21 11:39:21;;;;;;;20.53;9.60;;;;;;;;;;4968722;28;20711;-76
2022/01/21 11:41:50;;;;;;;16.70;8.83;;;;;;;;;;4969539;28;20651;-76
2022/01/21 11:44:19;;;;;;;17.37;8.70;;;;;;;;;;4951593;28;20213;-76
2022/01/21 11:46:59;;;;;;;17.30;8.37;;;;;;;;;;4961878;28;20201;-76
2022/01/21 11:49:25;;;;;;;15.93;8.60;;;;;;;;;;4963043;28;20691;-76
2022/01/21 11:52:07;;;;;;;15.33;8.20;;;;;;;;;;4958974;28;20188;-76
2022/01/21 11:54:36;;;;;;;21.10;7.83;;;;;;;;;;4968511;28;20180;-76
2022/01/21 11:57:04;;;;;;;21.33;8.13;;;;;;;;;;4968217;28;20255;-76
2022/01/21 12:01:59;;;;;;;20.53;11.30;;;;;;;;;;4972246;28;20235;-76
2022/01/21 12:04:32;;;;;;;16.27;8.70;;;;;;;;;;4968564;28;20208;-76
2022/01/21 12:06:59;;;;;;;13.87;8.43;;;;;;;;;;4968077;28;20196;-76
2022/01/21 12:09:44;;;;;;;11.80;7.10;;;;;;;;;;4973827;28;20658;-76
2022/01/21 12:12:10;;;;;;;14.83;7.67;;;;;;;;;;4968491;28;20181;-76
2022/01/21 12:14:41;;;;;;;17.07;7.87;;;;;;;;;;4980016;28;20201;-76
2022/01/21 12:17:19;;;;;;;11.80;6.73;;;;;;;;;;4972820;28;20242;-76
2022/01/21 12:19:46;;;;;;;13.40;7.47;;;;;;;;;;4986927;28;20279;-76
2022/01/21 12:22:19;;;;;;;16.70;7.23;;;;;;;;;;4968350;28;20185;-74
2022/01/21 12:24:51;;;;;;;15.67;7.83;;;;;;;;;;4963989;28;20220;-75
2022/01/21 12:27:18;;;;;;;14.50;7.60;;;;;;;;;;4971348;28;20295;-76
2022/01/21 12:29:45;;;;;;;15.00;6.47;;;;;;;;;;4973351;28;20216;-76
2022/01/21 12:32:21;;;;;;;16.63;6.50;;;;;;;;;;4969477;28;20605;-76
2022/01/21 12:35:11;;;;;;;21.73;6.23;;;;;;;;;;4964946;28;20207;-76
2022/01/21 12:38:03;;;;;;;16.20;6.70;;;;;;;;;;4962438;28;20729;-76
2022/01/21 12:40:38;;;;;;;11.23;6.03;;;;;;;;;;4959771;28;20268;-76
2022/01/21 12:43:23;;;;;;;11.43;6.03;;;;;;;;;;4971804;28;20196;-76
2022/01/21 12:46:07;;;;;;;9.97;4.83;;;;;;;;;;4968784;28;20671;-76
2022/01/21 12:48:38;;;;;;;10.77;4.10;;;;;;;;;;4974181;28;20564;-76
2022/01/21 12:56:44;;;;;;;7.33;3.13;;;;;;;;;;4972086;28;20196;-76
2022/01/21 12:59:20;;;;;;;7.23;3.27;;;;;;;;;;4992871;28;20187;-76
2022/01/21 13:01:47;;;;;;;6.67;3.33;;;;;;;;;;4986620;28;20239;-76
2022/01/21 13:04:32;;;;;;;8.47;3.23;;;;;;;;;;4969954;28;20638;-76
2022/01/21 13:07:07;;;;;;;9.40;3.80;;;;;;;;;;4988347;28;20220;-76
2022/01/21 13:09:52;;;;;;;9.80;3.23;;;;;;;;;;4973703;28;20184;-76
2022/01/21 13:12:21;;;;;;;6.07;3.07;;;;;;;;;;4971868;28;20260;-76
2022/01/21 13:14:56;;;;;;;9.37;2.80;;;;;;;;;;4971444;28;20231;-75
2022/01/21 13:17:22;;;;;;;6.17;2.60;;;;;;;;;;4989253;28;20208;-77
2022/01/21 13:19:50;;;;;;;7.50;2.87;;;;;;;;;;4990377;28;20533;-76
2022/01/21 13:22:31;;;;;;;8.87;3.40;;;;;;;;;;4969427;28;20192;-75
2022/01/21 13:25:09;;;;;;;7.50;2.80;;;;;;;;;;4971399;28;20659;-77
2022/01/21 13:27:46;;;;;;;7.83;2.70;;;;;;;;;;4953896;28;20308;-80
2022/01/21 13:30:14;;;;;;;6.43;2.70;;;;;;;;;;4973193;28;20191;-78
2022/01/21 13:32:40;;;;;;;8.27;2.90;;;;;;;;;;4971378;28;20193;-77
2022/01/21 13:35:11;;;;;;;7.50;2.93;;;;;;;;;;4972892;28;20189;-77
2022/01/21 13:37:39;;;;;;;8.83;4.00;;;;;;;;;;4971466;28;20734;-76
2022/01/21 13:40:08;;;;;;;9.93;2.77;;;;;;;;;;4965215;28;20193;-78
2022/01/21 13:42:34;;;;;;;5.50;2.50;;;;;;;;;;4956737;28;20551;-78
2022/01/21 13:45:04;;;;;;;5.57;2.90;;;;;;;;;;4998886;28;20644;-78
2022/01/21 13:48:00;;;;;;;4.90;2.67;;;;;;;;;;4967666;28;20241;-77
2022/01/21 13:50:26;;;;;;;5.23;2.40;;;;;;;;;;4968268;28;20276;-77
2022/01/21 13:52:58;;;;;;;3.80;2.20;;;;;;;;;;4982658;28;20284;-77
2022/01/21 13:55:28;;;;;;;10.23;2.70;;;;;;;;;;5004172;28;20200;-77
2022/01/21 13:57:55;;;;;;;7.97;2.50;;;;;;;;;;4952163;28;20228;-80
2022/01/21 14:00:26;;;;;;;6.33;2.17;;;;;;;;;;4970854;28;20189;-77
2022/01/21 14:03:06;;;;;;;6.20;2.00;;;;;;;;;;4969194;28;20188;-78
2022/01/21 14:06:02;;;;;;;4.53;2.00;;;;;;;;;;4988499;28;20633;-78
2022/01/21 14:08:30;;;;;;;4.43;2.00;;;;;;;;;;4973193;28;20250;-78
2022/01/21 14:11:07;;;;;;;3.43;2.00;;;;;;;;;;4969773;28;20188;-79
2022/01/21 14:13:35;;;;;;;4.30;2.00;;;;;;;;;;4975283;28;20587;-79
2022/01/21 14:16:04;;;;;;;4.57;2.10;;;;;;;;;;4981946;28;20220;-79
2022/01/21 14:18:31;;;;;;;5.10;2.30;;;;;;;;;;4968763;28;20180;-78
2022/01/21 14:21:09;;;;;;;4.60;2.20;;;;;;;;;;4981605;28;20192;-78
2022/01/21 14:23:37;;;;;;;7.70;2.77;;;;;;;;;;4997964;28;20192;-78
2022/01/21 14:26:08;;;;;;;5.90;2.20;;;;;;;;;;4952282;28;20220;-78
2022/01/21 14:28:38;;;;;;;5.47;1.80;;;;;;;;;;4965246;28;20252;-78
2022/01/21 14:31:04;;;;;;;5.87;2.10;;;;;;;;;;4976192;28;20185;-78
2022/01/21 14:33:42;;;;;;;3.80;2.07;;;;;;;;;;4962226;28;20245;-78
2022/01/21 14:36:13;;;;;;;4.70;1.80;;;;;;;;;;4961184;28;20507;-78
2022/01/21 14:38:39;;;;;;;4.10;1.97;;;;;;;;;;4972189;28;20179;-78
2022/01/21 14:41:15;;;;;;;5.80;1.93;;;;;;;;;;4966556;28;20196;-78
2022/01/21 14:43:49;;;;;;;5.60;2.10;;;;;;;;;;4945033;28;20276;-78
2022/01/21 14:46:24;;;;;;;4.67;2.10;;;;;;;;;;4967006;28;20201;-79
2022/01/21 14:49:01;;;;;;;4.77;2.33;;;;;;;;;;4963243;28;20220;-76
2022/01/21 14:51:33;;;;;;;5.43;2.43;;;;;;;;;;4967664;28;20195;-77
2022/01/21 14:54:13;;;;;;;5.37;2.40;;;;;;;;;;4964077;28;20665;-78
2022/01/21 14:56:41;;;;;;;3.63;2.30;;;;;;;;;;4976995;28;20216;-78
2022/01/21 14:59:15;;;;;;;3.87;2.40;;;;;;;;;;4964005;28;20185;-78
2022/01/21 15:02:09;;;;;;;5.97;2.20;;;;;;;;;;4964294;28;20208;-77
2022/01/21 15:04:37;;;;;;;7.27;2.70;;;;;;;;;;4958597;28;20256;-77
2022/01/21 15:07:05;;;;;;;8.30;2.90;;;;;;;;;;4955387;28;20730;-77
2022/01/21 15:09:31;;;;;;;4.60;2.43;;;;;;;;;;4970822;28;20220;-77
2022/01/21 15:14:43;;;;;;;4.83;2.50;;;;;;;;;;4968216;28;20184;-77
2022/01/21 15:17:14;;;;;;;3.73;2.30;;;;;;;;;;4975202;28;20688;-78
2022/01/21 15:19:43;;;;;;;7.37;2.80;;;;;;;;;;4980706;28;20189;-78
2022/01/21 15:22:12;;;;;;;6.20;3.23;;;;;;;;;;4958833;28;20189;-78
2022/01/21 15:24:39;;;;;;;5.53;2.87;;;;;;;;;;4978148;28;20283;-78
2022/01/21 15:27:05;;;;;;;4.87;3.10;;;;;;;;;;4961752;28;20284;-78
2022/01/21 15:29:31;;;;;;;6.30;2.37;;;;;;;;;;4980306;28;20207;-78
2022/01/21 15:31:57;;;;;;;7.47;3.23;;;;;;;;;;4945685;28;20187;-78
2022/01/21 15:34:23;;;;;;;8.70;2.67;;;;;;;;;;4963694;28;20236;-78
2022/01/21 15:36:50;;;;;;;4.47;1.90;;;;;;;;;;4962176;28;20228;-77
2022/01/21 15:39:16;;;;;;;5.67;2.80;;;;;;;;;;4971757;28;20192;-78
2022/01/21 15:41:43;;;;;;;4.60;2.80;;;;;;;;;;4982903;28;20180;-78
2022/01/21 15:44:10;;;;;;;5.97;2.67;;;;;;;;;;4953249;28;20208;-77
2022/01/21 15:46:37;;;;;;;6.23;2.90;;;;;;;;;;4969993;28;20204;-77
2022/01/21 15:49:03;;;;;;;4.83;2.70;;;;;;;;;;4967834;28;20742;-78
2022/01/21 15:51:30;;;;;;;5.07;2.30;;;;;;;;;;4970281;28;20284;-80